createdAt,value
2017-12-23T00:02:07.771Z,4.60
2017-12-23T00:04:35.699Z,3.50
2017-12-23T00:07:03.682Z,3.50
2017-12-23T00:09:31.594Z,3.37
2017-12-23T00:11:59.623Z,19.17
2017-12-23T00:14:27.537Z,4.17
2017-12-23T00:16:55.415Z,5.90
2017-12-23T00:19:23.334Z,5.47
2017-12-23T00:21:51.337Z,6.37
2017-12-23T00:24:19.265Z,6.13
2017-12-23T00:26:47.223Z,7.27
2017-12-23T00:29:15.167Z,7.70
2017-12-23T00:31:43.090Z,8.90
2017-12-23T00:34:11.023Z,7.93
2017-12-23T00:36:38.954Z,9.60
2017-12-23T00:39:06.867Z,12.03
2017-12-23T00:41:34.787Z,11.07
2017-12-23T00:44:02.713Z,11.77
2017-12-23T00:46:30.675Z,16.70
2017-12-23T00:48:58.644Z,14.93
2017-12-23T00:51:26.560Z,13.33
2017-12-23T00:53:54.530Z,14.40
2017-12-23T00:56:22.522Z,13.47
2017-12-23T00:58:50.507Z,15.33
2017-12-23T01:01:18.534Z,16.70
2017-12-23T01:03:46.475Z,14.23
2017-12-23T01:06:14.403Z,15.03
2017-12-23T01:08:42.327Z,19.37
2017-12-23T01:11:10.254Z,18.20
2017-12-23T01:13:38.658Z,14.60
2017-12-23T01:16:06.602Z,15.77
2017-12-23T01:18:34.545Z,17.47
2017-12-23T01:21:02.493Z,17.87
2017-12-23T01:23:30.415Z,16.50
2017-12-23T01:25:58.345Z,16.63
2017-12-23T01:28:26.250Z,15.27
2017-12-23T01:30:54.178Z,15.30
2017-12-23T01:33:22.098Z,16.10
2017-12-23T01:35:50.017Z,15.40
2017-12-23T01:38:17.955Z,14.30
2017-12-23T01:40:45.873Z,14.30
2017-12-23T01:43:13.801Z,14.70
2017-12-23T01:45:41.737Z,15.50
2017-12-23T01:48:09.662Z,12.63
2017-12-23T01:50:37.585Z,14.30
2017-12-23T01:53:05.530Z,13.47
2017-12-23T01:55:33.563Z,29.40
2017-12-23T01:58:01.570Z,13.70
2017-12-23T02:00:29.853Z,12.30
2017-12-23T02:02:57.782Z,14.53
2017-12-23T02:05:25.697Z,13.30
2017-12-23T02:07:53.629Z,13.90
2017-12-23T02:10:21.545Z,12.10
2017-12-23T02:12:49.497Z,12.10
2017-12-23T02:15:17.454Z,10.93
2017-12-23T02:17:45.386Z,11.47
2017-12-23T02:20:13.351Z,10.67
2017-12-23T02:22:41.308Z,12.30
2017-12-23T02:25:09.211Z,10.43
2017-12-23T02:27:37.150Z,11.10
2017-12-23T02:30:05.050Z,12.13
2017-12-23T02:32:32.977Z,10.33
2017-12-23T02:35:00.913Z,10.90
2017-12-23T02:37:28.815Z,10.93
2017-12-23T02:39:56.768Z,11.07
2017-12-23T02:42:25.538Z,9.47
2017-12-23T02:44:53.473Z,10.63
2017-12-23T02:47:21.403Z,10.50
2017-12-23T02:49:49.323Z,10.57
2017-12-23T02:52:17.242Z,9.87
2017-12-23T02:54:45.298Z,10.20
2017-12-23T02:57:14.042Z,10.33
2017-12-23T02:59:42.445Z,10.87
2017-12-23T03:02:10.370Z,10.90
2017-12-23T03:04:38.283Z,11.87
2017-12-23T03:07:06.205Z,11.10
2017-12-23T03:09:34.126Z,11.23
2017-12-23T03:12:02.053Z,12.20
2017-12-23T03:14:29.964Z,12.07
2017-12-23T03:16:57.894Z,10.70
2017-12-23T03:19:25.824Z,12.30
2017-12-23T03:21:53.729Z,12.00
2017-12-23T03:24:21.706Z,13.20
2017-12-23T03:26:49.651Z,13.57
2017-12-23T03:29:17.555Z,14.60
2017-12-23T03:31:45.467Z,13.40
2017-12-23T03:34:13.417Z,11.90
2017-12-23T03:36:41.322Z,13.33
2017-12-23T03:39:09.885Z,13.50
2017-12-23T03:41:37.809Z,15.10
2017-12-23T03:44:05.726Z,13.13
2017-12-23T03:46:33.693Z,14.20
2017-12-23T03:49:01.634Z,13.90
2017-12-23T03:51:29.573Z,15.40
2017-12-23T03:53:57.511Z,14.53
2017-12-23T03:56:25.418Z,13.77
2017-12-23T03:58:53.326Z,16.87
2017-12-23T04:01:21.250Z,16.50
2017-12-23T04:03:49.150Z,16.30
2017-12-23T04:06:17.085Z,17.10
2017-12-23T04:08:45.749Z,16.50
2017-12-23T04:11:13.671Z,19.83
2017-12-23T04:13:42.470Z,17.87
2017-12-23T04:16:10.394Z,17.83
2017-12-23T04:18:38.304Z,18.60
2017-12-23T04:21:06.221Z,21.83
2017-12-23T04:23:34.198Z,20.50
2017-12-23T04:26:02.106Z,20.17
2017-12-23T04:28:30.034Z,20.40
2017-12-23T04:30:57.947Z,19.63
2017-12-23T04:33:25.866Z,19.93
2017-12-23T04:35:53.802Z,21.50
2017-12-23T04:38:21.732Z,18.33
2017-12-23T04:40:49.667Z,23.00
2017-12-23T04:43:17.554Z,21.77
2017-12-23T04:45:45.574Z,22.30
2017-12-23T04:48:13.478Z,21.73
2017-12-23T04:50:41.410Z,23.13
2017-12-23T04:53:09.334Z,23.00
2017-12-23T04:55:37.264Z,21.47
2017-12-23T04:58:05.182Z,22.17
2017-12-23T05:00:33.114Z,22.00
2017-12-23T05:03:01.015Z,20.50
2017-12-23T05:05:28.929Z,20.57
2017-12-23T05:07:56.873Z,21.50
2017-12-23T05:10:24.786Z,19.10
2017-12-23T05:12:52.700Z,19.67
2017-12-23T05:15:20.645Z,18.07
2017-12-23T05:17:48.589Z,16.23
2017-12-23T05:20:16.489Z,19.63
2017-12-23T05:22:45.518Z,16.07
2017-12-23T05:25:13.433Z,16.10
2017-12-23T05:27:41.347Z,15.87
2017-12-23T05:30:09.270Z,17.23
2017-12-23T05:32:37.187Z,14.50
2017-12-23T05:35:05.538Z,14.60
2017-12-23T05:37:33.434Z,15.20
2017-12-23T05:40:01.349Z,15.30
2017-12-23T05:42:30.347Z,14.80
2017-12-23T05:44:58.281Z,15.27
2017-12-23T05:47:26.246Z,14.40
2017-12-23T05:49:54.165Z,15.30
2017-12-23T05:52:22.098Z,16.40
2017-12-23T05:54:49.997Z,13.60
2017-12-23T05:57:17.938Z,14.10
2017-12-23T05:59:47.202Z,15.67
2017-12-23T06:02:15.101Z,13.23
2017-12-23T06:04:43.103Z,13.67
2017-12-23T06:07:11.039Z,13.27
2017-12-23T06:09:39.302Z,13.03
2017-12-23T06:12:07.254Z,10.57
2017-12-23T06:14:35.969Z,10.67
2017-12-23T06:17:03.930Z,11.07
2017-12-23T06:19:32.034Z,10.00
2017-12-23T06:21:59.930Z,10.07
2017-12-23T06:24:27.837Z,8.77
2017-12-23T06:26:55.749Z,8.93
2017-12-23T06:29:23.659Z,9.07
2017-12-23T06:31:52.586Z,9.80
2017-12-23T06:34:20.814Z,7.70
2017-12-23T06:36:48.744Z,8.90
2017-12-23T06:39:16.646Z,9.27
2017-12-23T06:41:44.553Z,8.03
2017-12-23T06:44:12.473Z,7.70
2017-12-23T06:46:40.381Z,8.13
2017-12-23T06:49:08.293Z,14.40
2017-12-23T06:51:36.198Z,44.73
2017-12-23T06:54:04.114Z,9.60
2017-12-23T06:56:32.014Z,31.90
2017-12-23T06:58:59.962Z,20.63
2017-12-23T07:01:27.870Z,6.47
2017-12-23T07:03:55.775Z,6.60
2017-12-23T07:06:23.692Z,6.90
2017-12-23T07:08:51.603Z,5.30
2017-12-23T07:11:19.513Z,6.50
2017-12-23T07:13:47.422Z,6.93
2017-12-23T07:16:15.326Z,6.93
2017-12-23T07:18:43.244Z,5.33
2017-12-23T07:21:11.170Z,6.80
2017-12-23T07:23:39.121Z,6.03
2017-12-23T07:26:06.974Z,6.43
2017-12-23T07:28:34.898Z,7.00
2017-12-23T07:31:02.815Z,6.63
2017-12-23T07:33:30.726Z,6.43
2017-12-23T07:35:58.633Z,6.90
2017-12-23T07:38:26.561Z,7.17
2017-12-23T07:40:54.474Z,5.70
2017-12-23T07:43:22.373Z,7.40
2017-12-23T07:45:50.299Z,7.93
2017-12-23T07:48:18.200Z,5.63
2017-12-23T07:50:46.157Z,6.87
2017-12-23T07:53:14.070Z,5.80
2017-12-23T07:55:42.018Z,6.67
2017-12-23T07:58:09.906Z,7.50
2017-12-23T08:00:38.113Z,5.80
2017-12-23T08:03:06.041Z,6.20
2017-12-23T08:05:33.943Z,7.07
2017-12-23T08:08:01.883Z,7.20
2017-12-23T08:10:29.799Z,6.77
2017-12-23T08:12:57.714Z,6.83
2017-12-23T08:15:25.618Z,7.63
2017-12-23T08:17:53.539Z,8.30
2017-12-23T08:20:21.475Z,8.67
2017-12-23T08:22:49.390Z,11.57
2017-12-23T08:25:17.325Z,8.40
2017-12-23T08:27:45.234Z,10.67
2017-12-23T08:30:13.179Z,7.80
2017-12-23T08:32:41.099Z,26.97
2017-12-23T08:35:09.050Z,20.90
2017-12-23T08:37:36.982Z,12.87
2017-12-23T08:40:04.905Z,19.20
2017-12-23T08:42:32.819Z,7.30
2017-12-23T08:45:00.723Z,8.20
2017-12-23T08:47:28.677Z,6.67
2017-12-23T08:49:56.607Z,7.00
2017-12-23T08:52:24.534Z,7.80
2017-12-23T08:54:53.594Z,7.90
2017-12-23T08:57:21.533Z,8.20
2017-12-23T08:59:49.446Z,8.23
2017-12-23T09:02:17.379Z,8.80
2017-12-23T09:04:45.317Z,9.70
2017-12-23T09:07:13.237Z,9.03
2017-12-23T09:09:41.153Z,11.23
2017-12-23T09:12:09.083Z,11.00
2017-12-23T09:14:37.002Z,12.80
2017-12-23T09:17:04.958Z,12.50
2017-12-23T09:19:32.874Z,9.90
2017-12-23T09:22:00.812Z,11.60
2017-12-23T09:24:28.754Z,12.80
2017-12-23T09:26:56.661Z,11.30
2017-12-23T09:29:24.572Z,12.83
2017-12-23T09:31:52.504Z,11.90
2017-12-23T09:34:20.432Z,14.03
2017-12-23T09:36:48.900Z,12.50
2017-12-23T09:39:16.807Z,11.50
2017-12-23T09:41:44.724Z,12.37
2017-12-23T09:44:12.634Z,10.43
2017-12-23T09:46:40.561Z,12.57
2017-12-23T09:49:08.492Z,11.60
2017-12-23T09:51:36.424Z,12.20
2017-12-23T09:54:04.398Z,16.03
2017-12-23T09:56:32.329Z,13.93
2017-12-23T09:59:00.286Z,12.70
2017-12-23T10:01:28.221Z,13.70
2017-12-23T10:03:56.138Z,12.60
2017-12-23T10:06:24.062Z,13.27
2017-12-23T10:08:51.973Z,13.80
2017-12-23T10:11:19.930Z,14.33
2017-12-23T10:13:47.931Z,14.40
2017-12-23T10:16:15.865Z,13.73
2017-12-23T10:18:44.598Z,12.73
2017-12-23T10:21:12.540Z,12.97
2017-12-23T10:23:40.473Z,13.37
2017-12-23T10:26:08.424Z,12.83
2017-12-23T10:28:37.034Z,14.50
2017-12-23T10:31:04.994Z,16.27
2017-12-23T10:33:33.010Z,15.10
2017-12-23T10:36:00.929Z,14.70
2017-12-23T10:38:28.833Z,14.50
2017-12-23T10:40:56.754Z,15.53
2017-12-23T10:43:25.575Z,15.17
2017-12-23T10:45:55.049Z,14.67
2017-12-23T10:48:23.770Z,14.60
2017-12-23T10:50:51.677Z,13.37
2017-12-23T10:53:19.890Z,14.33
2017-12-23T10:55:47.820Z,13.57
2017-12-23T10:58:15.738Z,13.70
2017-12-23T11:00:43.739Z,12.13
2017-12-23T11:03:12.125Z,13.17
2017-12-23T11:05:40.061Z,12.93
2017-12-23T11:08:07.967Z,18.20
2017-12-23T11:10:35.927Z,24.67
2017-12-23T11:13:03.846Z,13.70
2017-12-23T11:15:32.658Z,13.63
2017-12-23T11:18:00.561Z,12.90
2017-12-23T11:20:29.008Z,12.70
2017-12-23T11:22:56.940Z,13.40
2017-12-23T11:25:25.505Z,14.10
2017-12-23T11:27:54.564Z,13.63
2017-12-23T11:30:22.497Z,14.27
2017-12-23T11:32:50.434Z,13.90
2017-12-23T11:35:18.363Z,14.97
2017-12-23T11:37:46.270Z,13.00
2017-12-23T11:40:15.428Z,14.53
2017-12-23T11:42:43.453Z,13.40
2017-12-23T11:45:11.379Z,26.40
2017-12-23T11:47:39.625Z,28.33
2017-12-23T11:50:07.555Z,16.53
2017-12-23T11:52:35.493Z,20.07
2017-12-23T11:55:03.407Z,13.70
2017-12-23T11:57:31.426Z,12.70
2017-12-23T11:59:59.358Z,13.30
2017-12-23T12:02:27.266Z,13.37
2017-12-23T12:04:55.210Z,13.80
2017-12-23T12:07:23.134Z,12.97
2017-12-23T12:09:51.081Z,12.70
2017-12-23T12:12:19.006Z,12.70
2017-12-23T12:14:46.934Z,13.00
2017-12-23T12:17:14.870Z,12.40
2017-12-23T12:19:42.791Z,12.60
2017-12-23T12:22:10.750Z,16.50
2017-12-23T12:24:38.904Z,21.93
2017-12-23T12:27:06.818Z,14.20
2017-12-23T12:29:34.743Z,12.77
2017-12-23T12:32:02.659Z,12.37
2017-12-23T12:34:30.585Z,11.87
2017-12-23T12:36:58.488Z,11.60
2017-12-23T12:39:26.451Z,11.70
2017-12-23T12:41:54.460Z,12.27
2017-12-23T12:44:22.416Z,11.43
2017-12-23T12:46:50.339Z,10.23
2017-12-23T12:49:18.265Z,12.33
2017-12-23T12:51:46.226Z,12.13
2017-12-23T12:54:14.143Z,10.53
2017-12-23T12:56:42.063Z,10.47
2017-12-23T12:59:10.001Z,10.83
2017-12-23T13:01:37.907Z,11.20
2017-12-23T13:04:05.847Z,10.30
2017-12-23T13:06:33.778Z,10.13
2017-12-23T13:09:01.719Z,9.83
2017-12-23T13:11:29.735Z,9.93
2017-12-23T13:13:57.679Z,10.57
2017-12-23T13:16:25.604Z,24.00
2017-12-23T13:18:53.627Z,14.73
2017-12-23T13:21:21.653Z,14.97
2017-12-23T13:23:49.727Z,13.53
2017-12-23T13:26:17.901Z,10.20
2017-12-23T13:28:46.080Z,12.07
2017-12-23T13:31:13.989Z,10.00
2017-12-23T13:33:42.003Z,10.40
2017-12-23T13:36:09.919Z,10.50
2017-12-23T13:38:37.858Z,10.10
2017-12-23T13:41:05.787Z,10.67
2017-12-23T13:43:33.828Z,10.27
2017-12-23T13:46:01.796Z,9.87
2017-12-23T13:48:29.723Z,10.00
2017-12-23T13:50:57.661Z,13.77
2017-12-23T13:53:25.582Z,10.20
2017-12-23T13:55:53.486Z,9.67
2017-12-23T13:58:21.414Z,9.30
2017-12-23T14:00:49.332Z,10.73
2017-12-23T14:03:17.249Z,10.43
2017-12-23T14:05:45.159Z,10.40
2017-12-23T14:08:13.082Z,12.23
2017-12-23T14:10:41.000Z,10.60
2017-12-23T14:13:08.921Z,12.37
2017-12-23T14:15:36.863Z,13.13
2017-12-23T14:18:04.764Z,9.90
2017-12-23T14:20:32.700Z,10.53
2017-12-23T14:23:00.606Z,10.63
2017-12-23T14:25:28.546Z,11.37
2017-12-23T14:27:56.457Z,11.80
2017-12-23T14:30:24.375Z,10.40
2017-12-23T14:32:52.312Z,11.30
2017-12-23T14:35:20.232Z,11.73
2017-12-23T14:37:48.183Z,11.60
2017-12-23T14:40:16.154Z,11.70
2017-12-23T14:42:44.104Z,10.83
2017-12-23T14:45:12.011Z,11.17
2017-12-23T14:47:39.926Z,11.70
2017-12-23T14:50:07.845Z,13.33
2017-12-23T14:52:35.757Z,10.90
2017-12-23T14:55:03.686Z,11.83
2017-12-23T14:57:32.245Z,11.23
2017-12-23T15:00:00.118Z,11.87
2017-12-23T15:02:29.546Z,10.43
2017-12-23T15:04:57.475Z,10.77
2017-12-23T15:07:25.401Z,11.83
2017-12-23T15:09:53.316Z,11.57
2017-12-23T15:12:21.233Z,11.57
2017-12-23T15:14:49.153Z,11.73
2017-12-23T15:17:17.089Z,11.43
2017-12-23T15:19:45.013Z,11.53
2017-12-23T15:22:12.952Z,11.57
2017-12-23T15:24:40.860Z,14.10
2017-12-23T15:27:08.791Z,16.20
2017-12-23T15:29:36.722Z,11.97
2017-12-23T15:32:04.655Z,17.60
2017-12-23T15:34:32.585Z,12.30
2017-12-23T15:37:00.495Z,12.87
2017-12-23T15:39:28.444Z,11.80
2017-12-23T15:41:56.370Z,10.70
2017-12-23T15:44:24.289Z,12.27
2017-12-23T15:46:52.205Z,12.43
2017-12-23T15:49:20.143Z,11.90
2017-12-23T15:51:48.066Z,16.67
2017-12-23T15:54:15.974Z,17.07
2017-12-23T15:56:43.902Z,15.60
2017-12-23T15:59:11.890Z,16.40
2017-12-23T16:01:39.804Z,16.20
2017-12-23T16:04:07.709Z,12.40
2017-12-23T16:06:35.639Z,12.67
2017-12-23T16:09:03.626Z,12.97
2017-12-23T16:11:31.542Z,12.90
2017-12-23T16:13:59.472Z,15.53
2017-12-23T16:16:27.400Z,12.97
2017-12-23T16:18:55.327Z,16.57
2017-12-23T16:21:23.244Z,13.00
2017-12-23T16:23:51.182Z,16.33
2017-12-23T16:26:19.101Z,17.40
2017-12-23T16:28:47.020Z,16.60
2017-12-23T16:31:14.943Z,15.20
2017-12-23T16:33:42.873Z,15.40
2017-12-23T16:36:10.814Z,17.60
2017-12-23T16:38:38.727Z,15.43
2017-12-23T16:41:06.661Z,15.10
2017-12-23T16:43:35.021Z,16.20
2017-12-23T16:46:02.968Z,15.70
2017-12-23T16:48:30.867Z,17.27
2017-12-23T16:50:58.779Z,15.63
2017-12-23T16:53:26.712Z,14.13
2017-12-23T16:55:54.623Z,14.80
2017-12-23T16:58:22.562Z,15.90
2017-12-23T17:00:50.473Z,15.23
2017-12-23T17:03:18.426Z,15.93
2017-12-23T17:05:46.349Z,15.80
2017-12-23T17:08:14.258Z,15.10
2017-12-23T17:10:42.171Z,14.30
2017-12-23T17:13:10.074Z,14.80
2017-12-23T17:15:38.012Z,12.40
2017-12-23T17:18:05.905Z,12.67
2017-12-23T17:20:33.840Z,13.50
2017-12-23T17:23:01.742Z,12.70
2017-12-23T17:25:29.687Z,12.90
2017-12-23T17:27:57.606Z,13.70
2017-12-23T17:30:31.510Z,12.57
2017-12-23T17:32:59.413Z,13.10
2017-12-23T17:35:27.362Z,13.60
2017-12-23T17:37:55.259Z,11.80
2017-12-23T17:40:23.165Z,29.37
2017-12-23T17:42:51.092Z,17.53
2017-12-23T17:45:19.015Z,28.70
2017-12-23T17:47:46.925Z,31.87
2017-12-23T17:50:14.852Z,10.97
2017-12-23T17:52:42.772Z,14.23
2017-12-23T17:55:10.694Z,11.00
2017-12-23T17:57:38.607Z,11.20
2017-12-23T18:00:06.529Z,12.23
2017-12-23T18:02:34.438Z,11.70
2017-12-23T18:05:02.364Z,11.87
2017-12-23T18:07:30.274Z,12.10
2017-12-23T18:09:58.205Z,11.57
2017-12-23T18:12:26.119Z,10.67
2017-12-23T18:14:54.029Z,28.60
2017-12-23T18:17:21.946Z,16.20
2017-12-23T18:19:49.850Z,13.43
2017-12-23T18:22:17.770Z,12.47
2017-12-23T18:24:45.709Z,11.93
2017-12-23T18:27:14.518Z,15.43
2017-12-23T18:29:42.434Z,13.90
2017-12-23T18:32:10.355Z,12.30
2017-12-23T18:34:38.280Z,11.67
2017-12-23T18:37:06.195Z,11.67
2017-12-23T18:39:34.118Z,11.37
2017-12-23T18:42:02.039Z,11.93
2017-12-23T18:44:29.961Z,10.77
2017-12-23T18:46:57.863Z,11.73
2017-12-23T18:49:25.812Z,11.10
2017-12-23T18:51:53.709Z,11.07
2017-12-23T18:54:21.633Z,12.33
2017-12-23T18:56:49.557Z,11.37
2017-12-23T18:59:17.478Z,12.07
2017-12-23T19:01:45.382Z,11.23
2017-12-23T19:04:13.297Z,10.50
2017-12-23T19:06:41.233Z,12.57
2017-12-23T19:09:09.129Z,14.70
2017-12-23T19:11:37.040Z,11.97
2017-12-23T19:14:04.967Z,12.90
2017-12-23T19:16:44.614Z,10.80
2017-12-23T19:19:12.534Z,10.83
2017-12-23T19:21:40.476Z,11.50
2017-12-23T19:24:08.393Z,10.80
2017-12-23T19:26:36.303Z,12.30
2017-12-23T19:29:04.240Z,12.30
2017-12-23T19:31:32.144Z,11.50
2017-12-23T19:34:00.042Z,11.90
2017-12-23T19:36:27.961Z,11.53
2017-12-23T19:38:55.878Z,12.67
2017-12-23T19:41:23.806Z,12.80
2017-12-23T19:43:51.730Z,11.13
2017-12-23T19:46:19.654Z,12.10
2017-12-23T19:48:47.567Z,11.67
2017-12-23T19:51:15.497Z,12.30
2017-12-23T19:53:43.409Z,29.90
2017-12-23T19:56:11.326Z,39.97
2017-12-23T19:58:39.267Z,42.00
2017-12-23T20:01:07.183Z,16.70
2017-12-23T20:03:35.103Z,20.00
2017-12-23T20:06:03.021Z,11.30
2017-12-23T20:08:30.954Z,12.37
2017-12-23T20:10:58.885Z,11.53
2017-12-23T20:13:26.805Z,12.20
2017-12-23T20:15:54.718Z,9.70
2017-12-23T20:18:22.614Z,12.90
2017-12-23T20:20:50.539Z,11.57
2017-12-23T20:23:18.454Z,10.93
2017-12-23T20:25:46.373Z,13.37
2017-12-23T20:28:14.289Z,10.10
2017-12-23T20:30:42.230Z,12.30
2017-12-23T20:33:10.144Z,12.47
2017-12-23T20:35:38.045Z,10.60
2017-12-23T20:38:05.978Z,12.83
2017-12-23T20:40:33.883Z,13.00
2017-12-23T20:43:01.815Z,13.80
2017-12-23T20:45:29.718Z,11.20
2017-12-23T20:47:57.646Z,12.03
2017-12-23T20:50:25.554Z,12.80
2017-12-23T20:52:53.466Z,12.27
2017-12-23T20:55:21.389Z,12.43
2017-12-23T20:57:49.303Z,12.50
2017-12-23T21:00:17.231Z,11.33
2017-12-23T21:02:45.161Z,11.00
2017-12-23T21:05:13.074Z,11.10
2017-12-23T21:07:41.001Z,10.87
2017-12-23T21:10:08.917Z,11.60
2017-12-23T21:12:36.832Z,11.33
2017-12-23T21:15:05.470Z,12.60
2017-12-23T21:17:33.755Z,11.43
2017-12-23T21:20:01.705Z,12.67
2017-12-23T21:22:29.650Z,12.57
2017-12-23T21:24:57.564Z,12.50
2017-12-23T21:27:25.478Z,13.10
2017-12-23T21:29:53.442Z,12.30
2017-12-23T21:32:21.367Z,11.93
2017-12-23T21:34:49.285Z,16.97
2017-12-23T21:37:17.209Z,16.60
2017-12-23T21:39:45.166Z,14.20
2017-12-23T21:42:13.108Z,12.80
2017-12-23T21:44:41.027Z,10.80
2017-12-23T21:47:09.014Z,12.00
2017-12-23T21:49:36.925Z,10.67
2017-12-23T21:52:04.932Z,10.63
2017-12-23T21:54:32.942Z,11.10
2017-12-23T21:57:00.869Z,11.23
2017-12-23T21:59:28.927Z,10.90
2017-12-23T22:01:56.839Z,11.43
2017-12-23T22:04:24.855Z,10.23
2017-12-23T22:06:52.770Z,10.90
2017-12-23T22:09:20.703Z,10.80
2017-12-23T22:11:48.614Z,10.70
2017-12-23T22:14:16.531Z,10.10
2017-12-23T22:16:44.654Z,9.90
2017-12-23T22:19:12.536Z,9.73
2017-12-23T22:21:40.475Z,10.00
2017-12-23T22:24:08.389Z,11.30
2017-12-23T22:26:36.325Z,9.57
2017-12-23T22:29:04.242Z,11.40
2017-12-23T22:31:32.161Z,10.90
2017-12-23T22:34:00.094Z,10.63
2017-12-23T22:36:27.998Z,12.20
2017-12-23T22:38:55.910Z,9.23
2017-12-23T22:41:23.813Z,11.07
2017-12-23T22:43:51.746Z,11.00
2017-12-23T22:46:19.664Z,9.73
2017-12-23T22:48:47.571Z,11.23
2017-12-23T22:51:15.481Z,10.57
2017-12-23T22:53:43.407Z,10.37
2017-12-23T22:56:11.335Z,12.03
2017-12-23T22:58:39.240Z,10.47
2017-12-23T23:01:07.171Z,11.27
2017-12-23T23:03:35.079Z,10.67
2017-12-23T23:06:02.985Z,10.57
2017-12-23T23:08:30.926Z,9.83
2017-12-23T23:10:58.850Z,10.70
2017-12-23T23:13:26.783Z,10.63
2017-12-23T23:15:54.685Z,11.23
2017-12-23T23:18:22.640Z,11.53
2017-12-23T23:20:50.568Z,10.90
2017-12-23T23:23:18.477Z,10.97
2017-12-23T23:25:46.398Z,11.20
2017-12-23T23:28:14.301Z,11.90
2017-12-23T23:30:42.226Z,10.10
2017-12-23T23:33:10.140Z,11.10
2017-12-23T23:35:38.061Z,11.07
2017-12-23T23:38:05.974Z,10.40
2017-12-23T23:40:33.910Z,10.33
2017-12-23T23:43:01.830Z,10.80
2017-12-23T23:45:29.767Z,10.30
2017-12-23T23:47:57.690Z,10.37
2017-12-23T23:50:25.610Z,11.47
2017-12-23T23:52:53.538Z,12.60
2017-12-23T23:55:21.446Z,9.83
2017-12-23T23:57:49.402Z,10.60
